sensor_id;sensor_type;location;lat;lon;timestamp;P1;durP1;ratioP1;P2;durP2;ratioP2
7150;SDS011;3617;48.836;9.172;2022-07-10T00:00:10;4.37;;;3.73;;
7150;SDS011;3617;48.836;9.172;2022-07-10T00:02:37;4.40;;;3.80;;
7150;SDS011;3617;48.836;9.172;2022-07-10T00:05:03;5.17;;;4.33;;
7150;SDS011;3617;48.836;9.172;2022-07-10T00:07:29;4.63;;;4.23;;
7150;SDS011;3617;48.836;9.172;2022-07-10T00:09:55;5.17;;;4.30;;
7150;SDS011;3617;48.836;9.172;2022-07-10T00:12:22;5.50;;;4.03;;
7150;SDS011;3617;48.836;9.172;2022-07-10T00:14:48;5.43;;;3.97;;
7150;SDS011;3617;48.836;9.172;2022-07-10T00:17:14;5.53;;;4.23;;
7150;SDS011;3617;48.836;9.172;2022-07-10T00:19:40;5.50;;;4.30;;
7150;SDS011;3617;48.836;9.172;2022-07-10T00:22:06;5.20;;;4.30;;
7150;SDS011;3617;48.836;9.172;2022-07-10T00:24:32;6.13;;;4.20;;
7150;SDS011;3617;48.836;9.172;2022-07-10T00:26:58;4.70;;;4.20;;
7150;SDS011;3617;48.836;9.172;2022-07-10T00:29:24;4.33;;;3.90;;
7150;SDS011;3617;48.836;9.172;2022-07-10T00:31:50;4.77;;;4.23;;
7150;SDS011;3617;48.836;9.172;2022-07-10T00:34:16;5.50;;;4.40;;
7150;SDS011;3617;48.836;9.172;2022-07-10T00:36:42;5.03;;;4.43;;
7150;SDS011;3617;48.836;9.172;2022-07-10T00:39:08;4.57;;;3.87;;
7150;SDS011;3617;48.836;9.172;2022-07-10T00:41:35;13.33;;;4.43;;
7150;SDS011;3617;48.836;9.172;2022-07-10T00:44:01;5.33;;;3.93;;
7150;SDS011;3617;48.836;9.172;2022-07-10T00:46:28;5.40;;;4.30;;
7150;SDS011;3617;48.836;9.172;2022-07-10T00:48:54;4.70;;;4.13;;
7150;SDS011;3617;48.836;9.172;2022-07-10T00:51:21;4.90;;;3.97;;
7150;SDS011;3617;48.836;9.172;2022-07-10T00:53:48;8.07;;;4.53;;
7150;SDS011;3617;48.836;9.172;2022-07-10T00:56:16;4.83;;;4.20;;
7150;SDS011;3617;48.836;9.172;2022-07-10T00:58:42;5.80;;;4.30;;
7150;SDS011;3617;48.836;9.172;2022-07-10T01:01:09;4.70;;;4.10;;
7150;SDS011;3617;48.836;9.172;2022-07-10T01:03:35;5.37;;;4.77;;
7150;SDS011;3617;48.836;9.172;2022-07-10T01:06:01;4.77;;;4.20;;
7150;SDS011;3617;48.836;9.172;2022-07-10T01:08:27;5.27;;;4.23;;
7150;SDS011;3617;48.836;9.172;2022-07-10T01:10:53;5.30;;;4.00;;
7150;SDS011;3617;48.836;9.172;2022-07-10T01:13:19;4.40;;;4.00;;
7150;SDS011;3617;48.836;9.172;2022-07-10T01:15:45;4.80;;;4.30;;
7150;SDS011;3617;48.836;9.172;2022-07-10T01:18:12;6.03;;;4.43;;
7150;SDS011;3617;48.836;9.172;2022-07-10T01:20:38;4.90;;;4.17;;
7150;SDS011;3617;48.836;9.172;2022-07-10T01:23:04;4.70;;;4.13;;
7150;SDS011;3617;48.836;9.172;2022-07-10T01:25:30;5.57;;;4.43;;
7150;SDS011;3617;48.836;9.172;2022-07-10T01:27:56;6.83;;;5.03;;
7150;SDS011;3617;48.836;9.172;2022-07-10T01:30:23;6.10;;;5.10;;
7150;SDS011;3617;48.836;9.172;2022-07-10T01:32:50;6.93;;;5.40;;
7150;SDS011;3617;48.836;9.172;2022-07-10T01:35:17;5.47;;;4.87;;
7150;SDS011;3617;48.836;9.172;2022-07-10T01:37:43;6.07;;;5.17;;
7150;SDS011;3617;48.836;9.172;2022-07-10T01:40:09;8.13;;;5.37;;
7150;SDS011;3617;48.836;9.172;2022-07-10T01:42:36;5.67;;;5.07;;
7150;SDS011;3617;48.836;9.172;2022-07-10T01:45:03;6.20;;;5.07;;
7150;SDS011;3617;48.836;9.172;2022-07-10T01:47:29;7.67;;;5.57;;
7150;SDS011;3617;48.836;9.172;2022-07-10T01:49:55;6.87;;;5.50;;
7150;SDS011;3617;48.836;9.172;2022-07-10T01:52:21;5.97;;;5.37;;
7150;SDS011;3617;48.836;9.172;2022-07-10T01:54:47;8.87;;;5.83;;
7150;SDS011;3617;48.836;9.172;2022-07-10T01:57:13;7.40;;;5.57;;
7150;SDS011;3617;48.836;9.172;2022-07-10T01:59:40;7.03;;;6.33;;
7150;SDS011;3617;48.836;9.172;2022-07-10T02:02:06;7.40;;;6.43;;
7150;SDS011;3617;48.836;9.172;2022-07-10T02:04:32;7.47;;;6.40;;
7150;SDS011;3617;48.836;9.172;2022-07-10T02:09:34;7.23;;;5.80;;
7150;SDS011;3617;48.836;9.172;2022-07-10T02:12:00;8.70;;;6.63;;
7150;SDS011;3617;48.836;9.172;2022-07-10T02:14:26;8.73;;;6.90;;
7150;SDS011;3617;48.836;9.172;2022-07-10T02:16:52;9.40;;;7.47;;
7150;SDS011;3617;48.836;9.172;2022-07-10T02:19:18;9.67;;;7.90;;
7150;SDS011;3617;48.836;9.172;2022-07-10T02:21:45;10.67;;;7.63;;
7150;SDS011;3617;48.836;9.172;2022-07-10T02:24:11;11.00;;;8.47;;
7150;SDS011;3617;48.836;9.172;2022-07-10T02:26:37;11.90;;;9.37;;
7150;SDS011;3617;48.836;9.172;2022-07-10T02:29:03;11.87;;;9.43;;
7150;SDS011;3617;48.836;9.172;2022-07-10T02:31:29;11.00;;;8.93;;
7150;SDS011;3617;48.836;9.172;2022-07-10T02:33:57;11.47;;;9.20;;
7150;SDS011;3617;48.836;9.172;2022-07-10T02:36:23;11.23;;;9.70;;
7150;SDS011;3617;48.836;9.172;2022-07-10T02:38:49;13.40;;;10.37;;
7150;SDS011;3617;48.836;9.172;2022-07-10T02:41:15;12.40;;;10.10;;
7150;SDS011;3617;48.836;9.172;2022-07-10T02:43:41;11.50;;;9.63;;
7150;SDS011;3617;48.836;9.172;2022-07-10T02:46:07;15.27;;;10.83;;
7150;SDS011;3617;48.836;9.172;2022-07-10T02:48:33;14.93;;;10.60;;
7150;SDS011;3617;48.836;9.172;2022-07-10T02:50:59;12.80;;;10.10;;
7150;SDS011;3617;48.836;9.172;2022-07-10T02:53:25;14.57;;;10.27;;
7150;SDS011;3617;48.836;9.172;2022-07-10T02:55:51;13.50;;;11.57;;
7150;SDS011;3617;48.836;9.172;2022-07-10T02:58:17;13.50;;;10.60;;
7150;SDS011;3617;48.836;9.172;2022-07-10T03:00:44;15.53;;;10.53;;
7150;SDS011;3617;48.836;9.172;2022-07-10T03:03:10;18.10;;;10.93;;
7150;SDS011;3617;48.836;9.172;2022-07-10T03:05:37;14.50;;;10.70;;
7150;SDS011;3617;48.836;9.172;2022-07-10T03:08:03;13.63;;;10.50;;
7150;SDS011;3617;48.836;9.172;2022-07-10T03:10:29;13.73;;;11.63;;
7150;SDS011;3617;48.836;9.172;2022-07-10T03:12:55;11.53;;;10.33;;
7150;SDS011;3617;48.836;9.172;2022-07-10T03:15:21;16.77;;;11.30;;
7150;SDS011;3617;48.836;9.172;2022-07-10T03:17:47;12.43;;;10.37;;
7150;SDS011;3617;48.836;9.172;2022-07-10T03:20:13;15.10;;;11.70;;
7150;SDS011;3617;48.836;9.172;2022-07-10T03:22:39;15.50;;;10.77;;
7150;SDS011;3617;48.836;9.172;2022-07-10T03:25:05;16.83;;;11.47;;
7150;SDS011;3617;48.836;9.172;2022-07-10T03:27:31;16.43;;;10.70;;
7150;SDS011;3617;48.836;9.172;2022-07-10T03:29:57;17.43;;;10.53;;
7150;SDS011;3617;48.836;9.172;2022-07-10T03:32:23;12.23;;;10.27;;
7150;SDS011;3617;48.836;9.172;2022-07-10T03:34:49;17.20;;;11.50;;
7150;SDS011;3617;48.836;9.172;2022-07-10T03:37:15;15.33;;;10.73;;
7150;SDS011;3617;48.836;9.172;2022-07-10T03:39:41;14.77;;;10.63;;
7150;SDS011;3617;48.836;9.172;2022-07-10T03:42:07;16.27;;;11.27;;
7150;SDS011;3617;48.836;9.172;2022-07-10T03:44:34;11.70;;;9.70;;
7150;SDS011;3617;48.836;9.172;2022-07-10T03:46:59;14.20;;;9.97;;
7150;SDS011;3617;48.836;9.172;2022-07-10T03:49:26;14.03;;;10.57;;
7150;SDS011;3617;48.836;9.172;2022-07-10T03:51:52;13.93;;;10.30;;
7150;SDS011;3617;48.836;9.172;2022-07-10T03:54:18;14.63;;;10.07;;
7150;SDS011;3617;48.836;9.172;2022-07-10T03:56:44;13.97;;;10.40;;
7150;SDS011;3617;48.836;9.172;2022-07-10T03:59:29;14.40;;;10.17;;
7150;SDS011;3617;48.836;9.172;2022-07-10T04:01:56;15.00;;;9.87;;
7150;SDS011;3617;48.836;9.172;2022-07-10T04:04:22;13.37;;;10.40;;
7150;SDS011;3617;48.836;9.172;2022-07-10T04:06:48;12.60;;;9.17;;
7150;SDS011;3617;48.836;9.172;2022-07-10T04:09:14;10.67;;;9.17;;
7150;SDS011;3617;48.836;9.172;2022-07-10T04:11:40;11.37;;;9.43;;
7150;SDS011;3617;48.836;9.172;2022-07-10T04:14:06;10.60;;;9.50;;
7150;SDS011;3617;48.836;9.172;2022-07-10T04:16:32;14.17;;;9.00;;
7150;SDS011;3617;48.836;9.172;2022-07-10T04:18:58;12.23;;;8.97;;
7150;SDS011;3617;48.836;9.172;2022-07-10T04:21:24;10.43;;;9.03;;
7150;SDS011;3617;48.836;9.172;2022-07-10T04:23:50;11.87;;;8.87;;
7150;SDS011;3617;48.836;9.172;2022-07-10T04:26:16;13.80;;;9.40;;
7150;SDS011;3617;48.836;9.172;2022-07-10T04:28:42;12.93;;;9.40;;
7150;SDS011;3617;48.836;9.172;2022-07-10T04:31:08;13.63;;;9.53;;
7150;SDS011;3617;48.836;9.172;2022-07-10T04:33:34;10.40;;;8.63;;
7150;SDS011;3617;48.836;9.172;2022-07-10T04:36:00;13.50;;;9.03;;
7150;SDS011;3617;48.836;9.172;2022-07-10T04:38:26;10.23;;;7.77;;
7150;SDS011;3617;48.836;9.172;2022-07-10T04:40:52;10.97;;;7.60;;
7150;SDS011;3617;48.836;9.172;2022-07-10T04:43:18;10.67;;;8.00;;
7150;SDS011;3617;48.836;9.172;2022-07-10T04:45:44;9.10;;;7.20;;
7150;SDS011;3617;48.836;9.172;2022-07-10T04:48:10;8.87;;;6.93;;
7150;SDS011;3617;48.836;9.172;2022-07-10T04:50:37;8.70;;;6.97;;
7150;SDS011;3617;48.836;9.172;2022-07-10T04:53:03;8.50;;;6.20;;
7150;SDS011;3617;48.836;9.172;2022-07-10T04:55:29;11.03;;;5.93;;
7150;SDS011;3617;48.836;9.172;2022-07-10T04:57:55;7.27;;;5.33;;
7150;SDS011;3617;48.836;9.172;2022-07-10T05:00:21;6.60;;;5.07;;
7150;SDS011;3617;48.836;9.172;2022-07-10T05:02:47;7.40;;;4.87;;
7150;SDS011;3617;48.836;9.172;2022-07-10T05:05:13;6.40;;;4.30;;
7150;SDS011;3617;48.836;9.172;2022-07-10T05:07:39;5.30;;;4.23;;
7150;SDS011;3617;48.836;9.172;2022-07-10T05:10:05;4.23;;;3.77;;
7150;SDS011;3617;48.836;9.172;2022-07-10T05:12:31;4.43;;;3.67;;
7150;SDS011;3617;48.836;9.172;2022-07-10T05:14:57;3.67;;;3.17;;
7150;SDS011;3617;48.836;9.172;2022-07-10T05:17:24;4.50;;;3.50;;
7150;SDS011;3617;48.836;9.172;2022-07-10T05:19:52;4.80;;;3.40;;
7150;SDS011;3617;48.836;9.172;2022-07-10T05:22:20;4.07;;;3.00;;
7150;SDS011;3617;48.836;9.172;2022-07-10T05:24:46;3.47;;;2.83;;
7150;SDS011;3617;48.836;9.172;2022-07-10T05:27:12;4.13;;;3.00;;
7150;SDS011;3617;48.836;9.172;2022-07-10T05:29:38;4.70;;;2.90;;
7150;SDS011;3617;48.836;9.172;2022-07-10T05:32:04;6.63;;;3.30;;
7150;SDS011;3617;48.836;9.172;2022-07-10T05:34:30;3.77;;;2.67;;
7150;SDS011;3617;48.836;9.172;2022-07-10T05:36:56;4.30;;;2.80;;
7150;SDS011;3617;48.836;9.172;2022-07-10T05:39:22;4.13;;;2.50;;
7150;SDS011;3617;48.836;9.172;2022-07-10T05:41:51;3.33;;;2.30;;
7150;SDS011;3617;48.836;9.172;2022-07-10T05:44:17;2.40;;;2.20;;
7150;SDS011;3617;48.836;9.172;2022-07-10T05:46:44;2.85;;;2.53;;
7150;SDS011;3617;48.836;9.172;2022-07-10T05:49:10;3.30;;;2.10;;
7150;SDS011;3617;48.836;9.172;2022-07-10T05:51:36;3.63;;;2.60;;
7150;SDS011;3617;48.836;9.172;2022-07-10T05:54:02;4.07;;;2.15;;
7150;SDS011;3617;48.836;9.172;2022-07-10T05:56:29;3.47;;;2.13;;
7150;SDS011;3617;48.836;9.172;2022-07-10T05:58:55;2.95;;;2.22;;
7150;SDS011;3617;48.836;9.172;2022-07-10T06:01:24;2.92;;;2.00;;
7150;SDS011;3617;48.836;9.172;2022-07-10T06:03:51;3.13;;;2.03;;
7150;SDS011;3617;48.836;9.172;2022-07-10T06:06:17;3.00;;;2.20;;
7150;SDS011;3617;48.836;9.172;2022-07-10T06:08:43;3.40;;;2.60;;
7150;SDS011;3617;48.836;9.172;2022-07-10T06:11:09;3.75;;;1.90;;
7150;SDS011;3617;48.836;9.172;2022-07-10T06:13:36;2.95;;;2.10;;
7150;SDS011;3617;48.836;9.172;2022-07-10T06:16:02;3.10;;;2.08;;
7150;SDS011;3617;48.836;9.172;2022-07-10T06:18:29;3.35;;;2.17;;
7150;SDS011;3617;48.836;9.172;2022-07-10T06:20:55;4.03;;;2.05;;
7150;SDS011;3617;48.836;9.172;2022-07-10T06:23:21;5.65;;;2.20;;
7150;SDS011;3617;48.836;9.172;2022-07-10T06:25:47;5.80;;;2.50;;
7150;SDS011;3617;48.836;9.172;2022-07-10T06:28:14;4.45;;;2.15;;
7150;SDS011;3617;48.836;9.172;2022-07-10T06:30:40;6.43;;;2.35;;
7150;SDS011;3617;48.836;9.172;2022-07-10T06:33:06;3.40;;;2.25;;
7150;SDS011;3617;48.836;9.172;2022-07-10T06:35:32;2.88;;;2.17;;
7150;SDS011;3617;48.836;9.172;2022-07-10T06:37:58;3.83;;;2.10;;
7150;SDS011;3617;48.836;9.172;2022-07-10T06:40:24;3.58;;;2.13;;
7150;SDS011;3617;48.836;9.172;2022-07-10T06:42:51;3.93;;;2.20;;
7150;SDS011;3617;48.836;9.172;2022-07-10T06:45:17;5.40;;;2.10;;
7150;SDS011;3617;48.836;9.172;2022-07-10T06:47:43;2.72;;;1.95;;
7150;SDS011;3617;48.836;9.172;2022-07-10T06:50:21;1.90;;;1.80;;
7150;SDS011;3617;48.836;9.172;2022-07-10T06:52:50;3.33;;;2.08;;
7150;SDS011;3617;48.836;9.172;2022-07-10T06:55:17;2.35;;;1.90;;
7150;SDS011;3617;48.836;9.172;2022-07-10T06:57:44;3.90;;;2.00;;
7150;SDS011;3617;48.836;9.172;2022-07-10T07:00:10;3.67;;;2.20;;
7150;SDS011;3617;48.836;9.172;2022-07-10T07:02:36;4.43;;;2.23;;
7150;SDS011;3617;48.836;9.172;2022-07-10T07:05:02;4.40;;;2.53;;
7150;SDS011;3617;48.836;9.172;2022-07-10T07:07:28;3.00;;;2.07;;
7150;SDS011;3617;48.836;9.172;2022-07-10T07:09:54;3.37;;;2.07;;
7150;SDS011;3617;48.836;9.172;2022-07-10T07:12:20;2.40;;;1.90;;
7150;SDS011;3617;48.836;9.172;2022-07-10T07:14:46;3.20;;;2.10;;
7150;SDS011;3617;48.836;9.172;2022-07-10T07:17:13;4.03;;;2.27;;
7150;SDS011;3617;48.836;9.172;2022-07-10T07:19:46;1.80;;;1.70;;
7150;SDS011;3617;48.836;9.172;2022-07-10T07:22:30;5.97;;;1.87;;
7150;SDS011;3617;48.836;9.172;2022-07-10T07:25:15;2.60;;;1.90;;
7150;SDS011;3617;48.836;9.172;2022-07-10T07:27:41;5.33;;;2.10;;
7150;SDS011;3617;48.836;9.172;2022-07-10T07:30:08;3.30;;;2.03;;
7150;SDS011;3617;48.836;9.172;2022-07-10T07:32:40;2.70;;;1.87;;
7150;SDS011;3617;48.836;9.172;2022-07-10T07:35:06;4.00;;;2.17;;
7150;SDS011;3617;48.836;9.172;2022-07-10T07:37:39;4.27;;;1.90;;
7150;SDS011;3617;48.836;9.172;2022-07-10T07:40:07;2.37;;;1.63;;
7150;SDS011;3617;48.836;9.172;2022-07-10T07:42:33;5.30;;;1.90;;
7150;SDS011;3617;48.836;9.172;2022-07-10T07:44:59;4.07;;;2.00;;
7150;SDS011;3617;48.836;9.172;2022-07-10T07:47:26;3.90;;;1.87;;
7150;SDS011;3617;48.836;9.172;2022-07-10T07:49:52;2.00;;;1.60;;
7150;SDS011;3617;48.836;9.172;2022-07-10T07:52:18;3.37;;;1.77;;
7150;SDS011;3617;48.836;9.172;2022-07-10T07:54:44;2.17;;;1.60;;
7150;SDS011;3617;48.836;9.172;2022-07-10T07:57:10;4.90;;;1.60;;
7150;SDS011;3617;48.836;9.172;2022-07-10T07:59:36;2.80;;;1.67;;
7150;SDS011;3617;48.836;9.172;2022-07-10T08:02:02;2.77;;;1.70;;
7150;SDS011;3617;48.836;9.172;2022-07-10T08:04:28;2.13;;;1.80;;
7150;SDS011;3617;48.836;9.172;2022-07-10T08:06:54;2.60;;;1.42;;
7150;SDS011;3617;48.836;9.172;2022-07-10T08:09:20;2.65;;;1.33;;
7150;SDS011;3617;48.836;9.172;2022-07-10T08:11:46;3.25;;;1.30;;
7150;SDS011;3617;48.836;9.172;2022-07-10T08:14:13;3.67;;;1.20;;
7150;SDS011;3617;48.836;9.172;2022-07-10T08:16:39;3.72;;;1.50;;
7150;SDS011;3617;48.836;9.172;2022-07-10T08:19:05;1.60;;;1.30;;
7150;SDS011;3617;48.836;9.172;2022-07-10T08:21:31;2.45;;;1.45;;
7150;SDS011;3617;48.836;9.172;2022-07-10T08:23:59;3.97;;;1.20;;
7150;SDS011;3617;48.836;9.172;2022-07-10T08:26:25;2.63;;;1.30;;
7150;SDS011;3617;48.836;9.172;2022-07-10T08:28:51;2.42;;;1.20;;
7150;SDS011;3617;48.836;9.172;2022-07-10T08:31:17;2.22;;;1.20;;
7150;SDS011;3617;48.836;9.172;2022-07-10T08:33:43;3.10;;;1.13;;
7150;SDS011;3617;48.836;9.172;2022-07-10T08:36:09;3.60;;;1.33;;
7150;SDS011;3617;48.836;9.172;2022-07-10T08:38:35;1.42;;;1.23;;
7150;SDS011;3617;48.836;9.172;2022-07-10T08:41:03;2.17;;;1.30;;
7150;SDS011;3617;48.836;9.172;2022-07-10T08:43:30;2.40;;;1.10;;
7150;SDS011;3617;48.836;9.172;2022-07-10T08:45:56;3.47;;;1.33;;
7150;SDS011;3617;48.836;9.172;2022-07-10T08:48:24;1.20;;;1.10;;
7150;SDS011;3617;48.836;9.172;2022-07-10T08:50:53;2.70;;;1.20;;
7150;SDS011;3617;48.836;9.172;2022-07-10T08:53:24;2.17;;;1.50;;
7150;SDS011;3617;48.836;9.172;2022-07-10T08:55:52;1.58;;;1.10;;
7150;SDS011;3617;48.836;9.172;2022-07-10T08:58:18;1.98;;;1.30;;
7150;SDS011;3617;48.836;9.172;2022-07-10T09:00:45;2.30;;;1.40;;
7150;SDS011;3617;48.836;9.172;2022-07-10T09:03:11;1.95;;;1.55;;
7150;SDS011;3617;48.836;9.172;2022-07-10T09:05:37;1.58;;;1.23;;
7150;SDS011;3617;48.836;9.172;2022-07-10T09:08:03;3.20;;;1.30;;
7150;SDS011;3617;48.836;9.172;2022-07-10T09:10:29;1.75;;;1.30;;
7150;SDS011;3617;48.836;9.172;2022-07-10T09:12:58;3.25;;;1.13;;
7150;SDS011;3617;48.836;9.172;2022-07-10T09:15:25;2.25;;;1.05;;
7150;SDS011;3617;48.836;9.172;2022-07-10T09:17:58;2.15;;;1.55;;
7150;SDS011;3617;48.836;9.172;2022-07-10T09:22:51;2.95;;;1.30;;
7150;SDS011;3617;48.836;9.172;2022-07-10T09:25:17;2.60;;;1.05;;
7150;SDS011;3617;48.836;9.172;2022-07-10T09:27:53;1.60;;;1.20;;
7150;SDS011;3617;48.836;9.172;2022-07-10T09:30:35;1.77;;;1.10;;
7150;SDS011;3617;48.836;9.172;2022-07-10T09:44:04;1.98;;;1.40;;
7150;SDS011;3617;48.836;9.172;2022-07-10T09:49:08;2.92;;;1.50;;
7150;SDS011;3617;48.836;9.172;2022-07-10T09:51:35;5.85;;;1.30;;
7150;SDS011;3617;48.836;9.172;2022-07-10T09:54:03;3.42;;;1.50;;
7150;SDS011;3617;48.836;9.172;2022-07-10T09:56:33;1.27;;;1.00;;
7150;SDS011;3617;48.836;9.172;2022-07-10T09:59:00;2.58;;;1.23;;
7150;SDS011;3617;48.836;9.172;2022-07-10T10:01:27;2.53;;;1.20;;
7150;SDS011;3617;48.836;9.172;2022-07-10T10:03:55;3.53;;;1.35;;
7150;SDS011;3617;48.836;9.172;2022-07-10T10:06:22;1.77;;;1.10;;
7150;SDS011;3617;48.836;9.172;2022-07-10T10:08:58;3.53;;;1.20;;
7150;SDS011;3617;48.836;9.172;2022-07-10T10:11:26;1.85;;;1.48;;
7150;SDS011;3617;48.836;9.172;2022-07-10T10:13:52;1.63;;;1.20;;
7150;SDS011;3617;48.836;9.172;2022-07-10T10:16:19;1.98;;;1.23;;
7150;SDS011;3617;48.836;9.172;2022-07-10T10:18:46;4.40;;;1.30;;
7150;SDS011;3617;48.836;9.172;2022-07-10T10:21:31;3.97;;;1.30;;
7150;SDS011;3617;48.836;9.172;2022-07-10T10:23:59;2.78;;;1.20;;
7150;SDS011;3617;48.836;9.172;2022-07-10T10:26:26;4.25;;;1.10;;
7150;SDS011;3617;48.836;9.172;2022-07-10T10:28:52;3.63;;;1.10;;
7150;SDS011;3617;48.836;9.172;2022-07-10T10:31:20;3.30;;;1.23;;
7150;SDS011;3617;48.836;9.172;2022-07-10T10:33:46;2.20;;;1.30;;
7150;SDS011;3617;48.836;9.172;2022-07-10T10:36:14;2.20;;;1.10;;
7150;SDS011;3617;48.836;9.172;2022-07-10T10:41:22;2.67;;;1.70;;
7150;SDS011;3617;48.836;9.172;2022-07-10T10:46:33;4.63;;;1.80;;
7150;SDS011;3617;48.836;9.172;2022-07-10T10:49:06;4.05;;;1.30;;
7150;SDS011;3617;48.836;9.172;2022-07-10T10:57:17;5.03;;;1.27;;
7150;SDS011;3617;48.836;9.172;2022-07-10T10:59:50;2.53;;;1.38;;
7150;SDS011;3617;48.836;9.172;2022-07-10T11:02:32;2.58;;;1.38;;
7150;SDS011;3617;48.836;9.172;2022-07-10T11:07:51;1.20;;;1.10;;
7150;SDS011;3617;48.836;9.172;2022-07-10T11:10:26;1.23;;;1.13;;
7150;SDS011;3617;48.836;9.172;2022-07-10T11:12:59;3.83;;;1.23;;
7150;SDS011;3617;48.836;9.172;2022-07-10T11:15:27;2.28;;;1.40;;
7150;SDS011;3617;48.836;9.172;2022-07-10T11:17:57;2.60;;;1.30;;
7150;SDS011;3617;48.836;9.172;2022-07-10T11:20:23;5.78;;;1.35;;
7150;SDS011;3617;48.836;9.172;2022-07-10T11:25:36;2.42;;;1.20;;
7150;SDS011;3617;48.836;9.172;2022-07-10T11:28:08;2.78;;;1.20;;
7150;SDS011;3617;48.836;9.172;2022-07-10T11:30:49;2.65;;;1.10;;
7150;SDS011;3617;48.836;9.172;2022-07-10T11:33:16;4.25;;;1.30;;
7150;SDS011;3617;48.836;9.172;2022-07-10T11:35:45;1.48;;;1.10;;
7150;SDS011;3617;48.836;9.172;2022-07-10T11:38:11;2.92;;;1.35;;
7150;SDS011;3617;48.836;9.172;2022-07-10T11:40:37;1.48;;;1.00;;
7150;SDS011;3617;48.836;9.172;2022-07-10T11:43:03;4.72;;;1.08;;
7150;SDS011;3617;48.836;9.172;2022-07-10T11:45:32;2.60;;;1.00;;
7150;SDS011;3617;48.836;9.172;2022-07-10T11:48:01;1.75;;;0.95;;
7150;SDS011;3617;48.836;9.172;2022-07-10T11:50:28;1.42;;;0.90;;
7150;SDS011;3617;48.836;9.172;2022-07-10T11:53:00;2.50;;;1.13;;
7150;SDS011;3617;48.836;9.172;2022-07-10T11:55:27;1.65;;;1.10;;
7150;SDS011;3617;48.836;9.172;2022-07-10T11:57:54;1.42;;;0.90;;
7150;SDS011;3617;48.836;9.172;2022-07-10T12:00:21;2.22;;;1.10;;
7150;SDS011;3617;48.836;9.172;2022-07-10T12:02:48;2.28;;;1.13;;
7150;SDS011;3617;48.836;9.172;2022-07-10T12:05:34;1.92;;;1.10;;
7150;SDS011;3617;48.836;9.172;2022-07-10T12:08:00;1.42;;;1.10;;
7150;SDS011;3617;48.836;9.172;2022-07-10T12:10:30;3.13;;;1.17;;
7150;SDS011;3617;48.836;9.172;2022-07-10T12:13:05;1.98;;;0.90;;
7150;SDS011;3617;48.836;9.172;2022-07-10T12:15:32;2.53;;;1.15;;
7150;SDS011;3617;48.836;9.172;2022-07-10T12:17:58;1.88;;;1.00;;
7150;SDS011;3617;48.836;9.172;2022-07-10T12:20:25;1.67;;;1.00;;
7150;SDS011;3617;48.836;9.172;2022-07-10T12:22:51;3.42;;;0.98;;
7150;SDS011;3617;48.836;9.172;2022-07-10T12:25:19;3.97;;;1.00;;
7150;SDS011;3617;48.836;9.172;2022-07-10T12:27:45;1.80;;;1.00;;
7150;SDS011;3617;48.836;9.172;2022-07-10T12:30:11;2.03;;;1.20;;
7150;SDS011;3617;48.836;9.172;2022-07-10T12:32:37;2.30;;;0.80;;
7150;SDS011;3617;48.836;9.172;2022-07-10T12:35:03;0.70;;;0.70;;
7150;SDS011;3617;48.836;9.172;2022-07-10T12:37:32;1.50;;;0.85;;
7150;SDS011;3617;48.836;9.172;2022-07-10T12:39:58;3.45;;;1.00;;
7150;SDS011;3617;48.836;9.172;2022-07-10T12:42:25;0.93;;;0.85;;
7150;SDS011;3617;48.836;9.172;2022-07-10T12:44:51;1.35;;;0.80;;
7150;SDS011;3617;48.836;9.172;2022-07-10T12:47:18;1.88;;;1.00;;
7150;SDS011;3617;48.836;9.172;2022-07-10T12:52:20;1.77;;;1.00;;
7150;SDS011;3617;48.836;9.172;2022-07-10T12:54:47;1.05;;;0.90;;
7150;SDS011;3617;48.836;9.172;2022-07-10T12:57:13;1.05;;;0.65;;
7150;SDS011;3617;48.836;9.172;2022-07-10T12:59:39;1.65;;;0.98;;
7150;SDS011;3617;48.836;9.172;2022-07-10T13:02:14;2.22;;;1.02;;
7150;SDS011;3617;48.836;9.172;2022-07-10T13:04:50;3.05;;;0.70;;
7150;SDS011;3617;48.836;9.172;2022-07-10T13:07:17;2.58;;;1.00;;
7150;SDS011;3617;48.836;9.172;2022-07-10T13:09:43;0.90;;;0.82;;
7150;SDS011;3617;48.836;9.172;2022-07-10T13:12:10;1.85;;;0.80;;
7150;SDS011;3617;48.836;9.172;2022-07-10T13:14:36;1.70;;;1.00;;
7150;SDS011;3617;48.836;9.172;2022-07-10T13:17:02;0.90;;;0.68;;
7150;SDS011;3617;48.836;9.172;2022-07-10T13:19:28;1.42;;;0.85;;
7150;SDS011;3617;48.836;9.172;2022-07-10T13:21:54;3.05;;;1.00;;
7150;SDS011;3617;48.836;9.172;2022-07-10T13:24:20;3.08;;;1.13;;
7150;SDS011;3617;48.836;9.172;2022-07-10T13:26:46;1.05;;;0.77;;
7150;SDS011;3617;48.836;9.172;2022-07-10T13:29:12;2.00;;;0.93;;
7150;SDS011;3617;48.836;9.172;2022-07-10T13:31:38;2.60;;;0.75;;
7150;SDS011;3617;48.836;9.172;2022-07-10T13:34:04;1.88;;;0.73;;
7150;SDS011;3617;48.836;9.172;2022-07-10T13:36:30;4.22;;;0.90;;
7150;SDS011;3617;48.836;9.172;2022-07-10T13:38:56;2.38;;;0.90;;
7150;SDS011;3617;48.836;9.172;2022-07-10T13:41:22;1.50;;;0.70;;
7150;SDS011;3617;48.836;9.172;2022-07-10T13:43:48;1.92;;;0.90;;
7150;SDS011;3617;48.836;9.172;2022-07-10T13:46:14;1.15;;;0.75;;
7150;SDS011;3617;48.836;9.172;2022-07-10T13:48:40;3.03;;;1.10;;
7150;SDS011;3617;48.836;9.172;2022-07-10T13:51:07;1.52;;;0.82;;
7150;SDS011;3617;48.836;9.172;2022-07-10T13:53:33;2.53;;;1.27;;
7150;SDS011;3617;48.836;9.172;2022-07-10T13:55:58;1.45;;;0.90;;
7150;SDS011;3617;48.836;9.172;2022-07-10T13:58:24;2.40;;;1.00;;
7150;SDS011;3617;48.836;9.172;2022-07-10T14:00:51;1.33;;;0.82;;
7150;SDS011;3617;48.836;9.172;2022-07-10T14:03:17;1.25;;;1.15;;
7150;SDS011;3617;48.836;9.172;2022-07-10T14:05:43;0.80;;;0.80;;
7150;SDS011;3617;48.836;9.172;2022-07-10T14:08:09;1.35;;;0.93;;
7150;SDS011;3617;48.836;9.172;2022-07-10T14:10:35;1.52;;;0.75;;
7150;SDS011;3617;48.836;9.172;2022-07-10T14:13:02;1.73;;;1.15;;
7150;SDS011;3617;48.836;9.172;2022-07-10T14:15:28;1.63;;;0.90;;
7150;SDS011;3617;48.836;9.172;2022-07-10T14:17:54;2.55;;;0.85;;
7150;SDS011;3617;48.836;9.172;2022-07-10T14:20:20;1.85;;;0.90;;
7150;SDS011;3617;48.836;9.172;2022-07-10T14:22:46;1.23;;;0.93;;
7150;SDS011;3617;48.836;9.172;2022-07-10T14:25:12;1.90;;;0.93;;
7150;SDS011;3617;48.836;9.172;2022-07-10T14:27:39;4.85;;;1.08;;
7150;SDS011;3617;48.836;9.172;2022-07-10T14:30:05;1.75;;;1.10;;
7150;SDS011;3617;48.836;9.172;2022-07-10T14:32:31;1.85;;;1.27;;
7150;SDS011;3617;48.836;9.172;2022-07-10T14:34:57;1.42;;;1.00;;
7150;SDS011;3617;48.836;9.172;2022-07-10T14:37:23;2.80;;;1.02;;
7150;SDS011;3617;48.836;9.172;2022-07-10T14:39:49;2.58;;;1.05;;
7150;SDS011;3617;48.836;9.172;2022-07-10T14:42:15;1.95;;;1.10;;
7150;SDS011;3617;48.836;9.172;2022-07-10T14:44:41;3.40;;;1.00;;
7150;SDS011;3617;48.836;9.172;2022-07-10T14:47:07;3.70;;;1.10;;
7150;SDS011;3617;48.836;9.172;2022-07-10T14:49:33;3.05;;;1.20;;
7150;SDS011;3617;48.836;9.172;2022-07-10T14:51:59;2.30;;;0.80;;
7150;SDS011;3617;48.836;9.172;2022-07-10T14:54:25;2.25;;;0.85;;
7150;SDS011;3617;48.836;9.172;2022-07-10T14:56:51;1.20;;;0.82;;
7150;SDS011;3617;48.836;9.172;2022-07-10T14:59:17;2.65;;;0.70;;
7150;SDS011;3617;48.836;9.172;2022-07-10T15:01:43;0.95;;;0.80;;
7150;SDS011;3617;48.836;9.172;2022-07-10T15:04:09;2.58;;;0.90;;
7150;SDS011;3617;48.836;9.172;2022-07-10T15:06:35;0.65;;;0.60;;
7150;SDS011;3617;48.836;9.172;2022-07-10T15:09:01;1.38;;;0.90;;
7150;SDS011;3617;48.836;9.172;2022-07-10T15:11:27;1.95;;;0.93;;
7150;SDS011;3617;48.836;9.172;2022-07-10T15:13:53;1.35;;;0.75;;
7150;SDS011;3617;48.836;9.172;2022-07-10T15:16:24;2.22;;;1.08;;
7150;SDS011;3617;48.836;9.172;2022-07-10T15:18:51;2.08;;;0.80;;
7150;SDS011;3617;48.836;9.172;2022-07-10T15:21:17;2.72;;;0.90;;
7150;SDS011;3617;48.836;9.172;2022-07-10T15:23:43;1.70;;;0.80;;
7150;SDS011;3617;48.836;9.172;2022-07-10T15:26:09;0.85;;;0.77;;
7150;SDS011;3617;48.836;9.172;2022-07-10T15:28:37;2.17;;;0.80;;
7150;SDS011;3617;48.836;9.172;2022-07-10T15:31:03;1.05;;;0.88;;
7150;SDS011;3617;48.836;9.172;2022-07-10T15:33:31;1.42;;;0.90;;
7150;SDS011;3617;48.836;9.172;2022-07-10T15:35:57;1.67;;;0.93;;
7150;SDS011;3617;48.836;9.172;2022-07-10T15:38:23;3.67;;;1.00;;
7150;SDS011;3617;48.836;9.172;2022-07-10T15:40:49;0.93;;;0.70;;
7150;SDS011;3617;48.836;9.172;2022-07-10T15:43:15;1.60;;;0.90;;
7150;SDS011;3617;48.836;9.172;2022-07-10T15:45:41;3.45;;;0.88;;
7150;SDS011;3617;48.836;9.172;2022-07-10T15:48:07;1.27;;;0.80;;